< < Back
Terminal Aerodrome Forecast


Current Version              Previous Versions:   1  2  3  4  5  6  7  8  9  

Terminal Aerodrome Forecast

049
FTUS42 KGSP 082332
TAFGSP
TAF
KGSP 082332Z 0900/0924 26010G18KT P6SM BKN100
     FM090100 26009KT P6SM SCT110
     FM091800 26012G19KT P6SM BKN050=

Latest METAR

583
SAUS70 KWBC 091756
MTRGSP
METAR KGSP 091753Z 27011G19KT 10SM OVC055 03/M09 A2973 RMK AO2 SLP070
T00281089 10033 20000 58006


USA.gov is the U.S. government's official web portal to all federal, state and local government web resources and services.